createdAt,value
2022-12-25T00:00:30.353Z,0
2022-12-25T00:01:30.455Z,0
2022-12-25T00:02:30.733Z,0
2022-12-25T00:03:30.778Z,0
2022-12-25T00:04:30.816Z,0
2022-12-25T00:05:30.914Z,0
2022-12-25T00:06:31.050Z,0
2022-12-25T00:07:31.578Z,0
2022-12-25T00:08:31.262Z,0
2022-12-25T00:09:31.421Z,0
2022-12-25T00:10:31.575Z,0
2022-12-25T00:11:31.717Z,0
2022-12-25T00:12:31.885Z,0
2022-12-25T00:13:31.990Z,0
2022-12-25T00:14:32.503Z,0
2022-12-25T00:15:32.272Z,0
2022-12-25T00:16:32.473Z,0
2022-12-25T00:17:32.568Z,0
2022-12-25T00:18:32.632Z,0
2022-12-25T00:19:32.778Z,0
2022-12-25T00:20:32.948Z,0
2022-12-25T00:21:33.028Z,0
2022-12-25T00:22:33.185Z,0
2022-12-25T00:23:33.287Z,0
2022-12-25T00:24:33.437Z,0
2022-12-25T00:25:33.590Z,0
2022-12-25T00:26:33.737Z,0
2022-12-25T00:27:33.848Z,0
2022-12-25T00:28:33.990Z,0
2022-12-25T00:29:34.443Z,0
2022-12-25T00:30:34.267Z,0
2022-12-25T00:31:34.499Z,0
2022-12-25T00:32:34.562Z,0
2022-12-25T00:33:34.699Z,0
2022-12-25T00:34:34.854Z,0
2022-12-25T00:35:35.018Z,0
2022-12-25T00:36:41.310Z,0
2022-12-25T00:37:35.226Z,0
2022-12-25T00:38:35.390Z,0
2022-12-25T00:39:35.464Z,0
2022-12-25T00:40:35.616Z,0
2022-12-25T00:41:35.705Z,0
2022-12-25T00:42:35.818Z,0
2022-12-25T00:43:35.963Z,0
2022-12-25T00:44:36.460Z,0
2022-12-25T00:45:36.254Z,0
2022-12-25T00:46:36.364Z,0
2022-12-25T00:47:36.429Z,0
2022-12-25T00:48:36.536Z,0
2022-12-25T00:49:36.668Z,0
2022-12-25T00:50:36.770Z,0
2022-12-25T00:51:36.921Z,0
2022-12-25T00:52:37.086Z,0
2022-12-25T00:53:37.279Z,0
2022-12-25T00:54:37.333Z,0
2022-12-25T00:55:37.463Z,0
2022-12-25T00:56:37.564Z,0
2022-12-25T00:57:37.687Z,0
2022-12-25T00:58:37.838Z,0
2022-12-25T00:59:38.292Z,0
2022-12-25T01:00:38.100Z,0
2022-12-25T01:01:38.343Z,0
2022-12-25T01:02:38.507Z,0
2022-12-25T01:03:38.501Z,0
2022-12-25T01:04:38.641Z,0
2022-12-25T01:05:38.746Z,0
2022-12-25T01:06:38.841Z,0
2022-12-25T01:07:38.943Z,0
2022-12-25T01:08:39.056Z,0
2022-12-25T01:09:39.147Z,0
2022-12-25T01:10:39.246Z,0
2022-12-25T01:11:39.388Z,0
2022-12-25T01:12:39.535Z,0
2022-12-25T01:13:39.662Z,0
2022-12-25T01:14:40.161Z,0
2022-12-25T01:15:39.910Z,0
2022-12-25T01:16:40.146Z,0
2022-12-25T01:17:40.166Z,0
2022-12-25T01:18:40.313Z,0
2022-12-25T01:19:40.418Z,0
2022-12-25T01:20:40.517Z,0
2022-12-25T01:21:40.667Z,0
2022-12-25T01:22:40.772Z,0
2022-12-25T01:23:40.875Z,0
2022-12-25T01:24:40.971Z,0
2022-12-25T01:25:41.133Z,0
2022-12-25T01:26:41.286Z,0
2022-12-25T01:27:41.447Z,0
2022-12-25T01:28:41.588Z,0
2022-12-25T01:29:42.159Z,0
2022-12-25T01:30:41.885Z,0
2022-12-25T01:31:42.088Z,0
2022-12-25T01:32:42.188Z,0
2022-12-25T01:33:42.297Z,0
2022-12-25T01:34:42.433Z,0
2022-12-25T01:35:42.591Z,0
2022-12-25T01:36:42.749Z,0
2022-12-25T01:37:42.903Z,0
2022-12-25T01:38:43.074Z,0
2022-12-25T01:39:43.135Z,0
2022-12-25T01:40:43.236Z,0
2022-12-25T01:41:43.361Z,0
2022-12-25T01:42:43.497Z,0
2022-12-25T01:43:43.654Z,0
2022-12-25T01:44:44.171Z,0
2022-12-25T01:45:43.970Z,0
2022-12-25T01:46:44.064Z,0
2022-12-25T01:47:44.224Z,0
2022-12-25T01:48:44.311Z,0
2022-12-25T01:49:44.456Z,0
2022-12-25T01:50:44.568Z,0
2022-12-25T01:51:44.729Z,0
2022-12-25T01:52:44.873Z,0
2022-12-25T01:53:45.023Z,0
2022-12-25T01:54:45.183Z,0
2022-12-25T01:55:45.301Z,0
2022-12-25T01:56:45.430Z,0
2022-12-25T01:57:45.581Z,0
2022-12-25T01:58:45.728Z,0
2022-12-25T01:59:46.201Z,0
2022-12-25T02:00:46.002Z,0
2022-12-25T02:01:46.126Z,0
2022-12-25T02:02:46.310Z,0
2022-12-25T02:03:46.330Z,0
2022-12-25T02:04:46.431Z,0
2022-12-25T02:05:46.594Z,0
2022-12-25T02:06:46.742Z,0
2022-12-25T02:07:46.887Z,0
2022-12-25T02:08:46.999Z,0
2022-12-25T02:09:47.136Z,0
2022-12-25T02:10:47.242Z,0
2022-12-25T02:11:47.398Z,0
2022-12-25T02:12:47.491Z,0
2022-12-25T02:13:47.646Z,0
2022-12-25T02:14:48.134Z,0
2022-12-25T02:15:47.899Z,0
2022-12-25T02:16:57.167Z,0
2022-12-25T02:17:48.123Z,0
2022-12-25T02:18:48.270Z,0
2022-12-25T02:19:48.417Z,0
2022-12-25T02:20:48.554Z,0
2022-12-25T02:21:48.707Z,0
2022-12-25T02:22:48.880Z,0
2022-12-25T02:23:48.977Z,0
2022-12-25T02:24:49.115Z,0
2022-12-25T02:25:49.301Z,0
2022-12-25T02:26:49.420Z,0
2022-12-25T02:27:49.536Z,0
2022-12-25T02:28:49.631Z,0
2022-12-25T02:29:50.593Z,0
2022-12-25T02:30:49.922Z,0
2022-12-25T02:31:50.112Z,0
2022-12-25T02:32:50.180Z,0
2022-12-25T02:33:50.324Z,0
2022-12-25T02:34:50.428Z,0
2022-12-25T02:35:50.527Z,0
2022-12-25T02:36:50.683Z,0
2022-12-25T02:37:50.815Z,0
2022-12-25T02:38:50.875Z,0
2022-12-25T02:39:51.039Z,0
2022-12-25T02:40:51.172Z,0
2022-12-25T02:41:51.293Z,0
2022-12-25T02:42:51.409Z,0
2022-12-25T02:43:51.547Z,0
2022-12-25T02:44:52.054Z,0
2022-12-25T02:45:51.874Z,0
2022-12-25T02:46:51.905Z,0
2022-12-25T02:47:52.057Z,0
2022-12-25T02:48:52.216Z,0
2022-12-25T02:49:52.367Z,0
2022-12-25T02:50:52.458Z,0
2022-12-25T02:51:52.611Z,0
2022-12-25T02:52:52.750Z,0
2022-12-25T02:53:52.853Z,0
2022-12-25T02:54:52.969Z,0
2022-12-25T02:55:53.118Z,0
2022-12-25T02:56:53.261Z,0
2022-12-25T02:57:53.355Z,0
2022-12-25T02:58:53.466Z,0
2022-12-25T02:59:54.056Z,0
2022-12-25T03:00:53.775Z,0
2022-12-25T03:01:53.976Z,0
2022-12-25T03:02:53.981Z,0
2022-12-25T03:03:54.126Z,0
2022-12-25T03:04:54.272Z,0
2022-12-25T03:05:54.454Z,0
2022-12-25T03:06:54.526Z,0
2022-12-25T03:07:54.636Z,0
2022-12-25T03:08:54.772Z,0
2022-12-25T03:09:54.891Z,0
2022-12-25T03:10:55.048Z,0
2022-12-25T03:11:55.175Z,0
2022-12-25T03:12:55.287Z,0
2022-12-25T03:13:55.439Z,0
2022-12-25T03:14:55.964Z,0
2022-12-25T03:15:55.743Z,0
2022-12-25T03:16:56.002Z,0
2022-12-25T03:17:55.986Z,0
2022-12-25T03:18:56.100Z,0
2022-12-25T03:19:56.258Z,0
2022-12-25T03:20:56.413Z,0
2022-12-25T03:21:56.539Z,0
2022-12-25T03:22:56.709Z,0
2022-12-25T03:23:56.853Z,0
2022-12-25T03:24:56.992Z,0
2022-12-25T03:25:57.102Z,0
2022-12-25T03:26:57.361Z,0
2022-12-25T03:27:57.384Z,0
2022-12-25T03:28:57.545Z,0
2022-12-25T03:29:58.046Z,0
2022-12-25T03:30:57.888Z,0
2022-12-25T03:31:57.958Z,0
2022-12-25T03:32:58.122Z,0
2022-12-25T03:33:58.265Z,0
2022-12-25T03:34:58.369Z,0
2022-12-25T03:35:58.514Z,0
2022-12-25T03:36:58.676Z,0
2022-12-25T03:37:58.819Z,0
2022-12-25T03:38:58.980Z,0
2022-12-25T03:39:59.138Z,0
2022-12-25T03:40:59.279Z,0
2022-12-25T03:41:59.383Z,0
2022-12-25T03:42:59.528Z,0
2022-12-25T03:43:59.697Z,0
2022-12-25T03:45:00.215Z,0
2022-12-25T03:46:00.048Z,0
2022-12-25T03:47:00.111Z,0
2022-12-25T03:48:00.254Z,0
2022-12-25T03:49:00.349Z,0
2022-12-25T03:50:00.481Z,0
2022-12-25T03:51:00.637Z,0
2022-12-25T03:52:00.755Z,0
2022-12-25T03:53:00.851Z,0
2022-12-25T03:54:00.993Z,0
2022-12-25T03:55:01.151Z,0
2022-12-25T03:56:01.279Z,0
2022-12-25T03:57:01.408Z,0
2022-12-25T03:58:01.559Z,0
2022-12-25T03:59:01.698Z,0
2022-12-25T04:00:02.202Z,0
2022-12-25T04:01:02.081Z,0
2022-12-25T04:02:02.232Z,0
2022-12-25T04:03:02.362Z,0
2022-12-25T04:04:02.404Z,0
2022-12-25T04:05:02.519Z,0
2022-12-25T04:06:02.657Z,0
2022-12-25T04:07:02.820Z,0
2022-12-25T04:08:02.923Z,0
2022-12-25T04:09:03.016Z,0
2022-12-25T04:10:03.112Z,0
2022-12-25T04:11:03.278Z,0
2022-12-25T04:12:03.489Z,0
2022-12-25T04:13:03.581Z,0
2022-12-25T04:14:03.730Z,0
2022-12-25T04:15:04.309Z,0
2022-12-25T04:16:04.067Z,0
2022-12-25T04:17:04.120Z,0
2022-12-25T04:18:04.248Z,0
2022-12-25T04:19:04.407Z,0
2022-12-25T04:20:04.494Z,0
2022-12-25T04:21:04.583Z,0
2022-12-25T04:22:04.680Z,0
2022-12-25T04:23:04.830Z,0
2022-12-25T04:24:04.992Z,0
2022-12-25T04:25:05.091Z,0
2022-12-25T04:26:05.214Z,0
2022-12-25T04:27:05.347Z,0
2022-12-25T04:28:05.517Z,0
2022-12-25T04:29:05.591Z,0
2022-12-25T04:30:06.167Z,0
2022-12-25T04:31:05.943Z,0
2022-12-25T04:32:06.050Z,0
2022-12-25T04:33:06.229Z,0
2022-12-25T04:34:06.352Z,0
2022-12-25T04:35:06.503Z,0
2022-12-25T04:36:06.617Z,0
2022-12-25T04:37:06.721Z,0
2022-12-25T04:38:06.852Z,0
2022-12-25T04:39:06.959Z,0
2022-12-25T04:40:07.062Z,0
2022-12-25T04:41:07.272Z,0
2022-12-25T04:42:07.372Z,0
2022-12-25T04:43:07.499Z,0
2022-12-25T04:44:07.623Z,0
2022-12-25T04:45:08.136Z,0
2022-12-25T04:46:07.971Z,0
2022-12-25T04:47:11.363Z,0
2022-12-25T04:48:08.171Z,0
2022-12-25T04:49:08.227Z,0
2022-12-25T04:50:08.384Z,0
2022-12-25T04:51:08.538Z,0
2022-12-25T04:52:08.691Z,0
2022-12-25T04:53:08.844Z,0
2022-12-25T04:54:09.005Z,0
2022-12-25T04:55:09.092Z,0
2022-12-25T04:56:09.231Z,0
2022-12-25T04:57:09.389Z,0
2022-12-25T04:58:09.540Z,0
2022-12-25T04:59:09.693Z,0
2022-12-25T05:00:10.282Z,0
2022-12-25T05:01:09.999Z,0
2022-12-25T05:02:10.241Z,0
2022-12-25T05:03:10.342Z,0
2022-12-25T05:04:10.350Z,0
2022-12-25T05:05:10.463Z,0
2022-12-25T05:06:10.600Z,0
2022-12-25T05:07:10.763Z,0
2022-12-25T05:08:10.867Z,0
2022-12-25T05:09:11.009Z,0
2022-12-25T05:10:11.155Z,0
2022-12-25T05:11:11.323Z,0
2022-12-25T05:12:11.477Z,0
2022-12-25T05:13:11.616Z,0
2022-12-25T05:14:11.748Z,0
2022-12-25T05:15:12.161Z,0
2022-12-25T05:16:11.983Z,0
2022-12-25T05:17:12.022Z,0
2022-12-25T05:18:12.181Z,0
2022-12-25T05:19:12.322Z,0
2022-12-25T05:20:12.450Z,0
2022-12-25T05:21:12.535Z,0
2022-12-25T05:22:12.676Z,0
2022-12-25T05:23:12.781Z,0
2022-12-25T05:24:12.894Z,0
2022-12-25T05:25:12.981Z,0
2022-12-25T05:26:13.083Z,0
2022-12-25T05:27:13.194Z,0
2022-12-25T05:28:13.334Z,0
2022-12-25T05:29:13.489Z,0
2022-12-25T05:30:14.037Z,0
2022-12-25T05:31:13.862Z,0
2022-12-25T05:32:13.950Z,0
2022-12-25T05:33:14.086Z,0
2022-12-25T05:34:14.198Z,0
2022-12-25T05:35:14.350Z,0
2022-12-25T05:36:14.499Z,0
2022-12-25T05:37:14.596Z,0
2022-12-25T05:38:14.694Z,0
2022-12-25T05:39:14.797Z,0
2022-12-25T05:40:14.972Z,0
2022-12-25T05:41:15.107Z,0
2022-12-25T05:42:15.264Z,0
2022-12-25T05:43:15.399Z,0
2022-12-25T05:44:15.557Z,0
2022-12-25T05:45:16.025Z,0
2022-12-25T05:46:15.910Z,0
2022-12-25T05:47:15.958Z,0
2022-12-25T05:48:16.056Z,0
2022-12-25T05:49:16.171Z,0
2022-12-25T05:50:16.330Z,0
2022-12-25T05:51:16.474Z,0
2022-12-25T05:52:16.628Z,0
2022-12-25T05:53:16.771Z,0
2022-12-25T05:54:16.921Z,0
2022-12-25T05:55:17.015Z,0
2022-12-25T05:56:17.152Z,0
2022-12-25T05:57:17.286Z,0
2022-12-25T05:58:17.428Z,0
2022-12-25T05:59:17.574Z,0
2022-12-25T06:00:18.105Z,0
2022-12-25T06:01:17.920Z,0
2022-12-25T06:02:18.096Z,0
2022-12-25T06:03:18.186Z,0
2022-12-25T06:04:18.263Z,0
2022-12-25T06:05:18.371Z,0
2022-12-25T06:06:18.495Z,0
2022-12-25T06:07:18.632Z,0
2022-12-25T06:08:18.777Z,0
2022-12-25T06:09:18.953Z,0
2022-12-25T06:10:19.100Z,0
2022-12-25T06:11:19.259Z,0
2022-12-25T06:12:19.386Z,0
2022-12-25T06:13:19.585Z,0
2022-12-25T06:14:20.078Z,0
2022-12-25T06:15:20.380Z,0
2022-12-25T06:16:20.034Z,0
2022-12-25T06:17:20.066Z,0
2022-12-25T06:18:20.158Z,0
2022-12-25T06:19:20.272Z,0
2022-12-25T06:20:20.456Z,0
2022-12-25T06:21:20.651Z,0
2022-12-25T06:22:20.738Z,0
2022-12-25T06:23:20.929Z,0
2022-12-25T06:24:21.684Z,0
2022-12-25T06:25:21.082Z,0
2022-12-25T06:26:21.241Z,0
2022-12-25T06:27:21.385Z,0
2022-12-25T06:28:21.485Z,0
2022-12-25T06:29:21.634Z,0
2022-12-25T06:30:22.169Z,0
2022-12-25T06:31:21.936Z,0
2022-12-25T06:32:22.081Z,0
2022-12-25T06:33:22.185Z,0
2022-12-25T06:34:22.270Z,0
2022-12-25T06:35:22.427Z,0
2022-12-25T06:36:22.582Z,0
2022-12-25T06:37:22.745Z,0
2022-12-25T06:38:22.885Z,0
2022-12-25T06:39:23.391Z,0
2022-12-25T06:40:23.148Z,0
2022-12-25T06:41:23.247Z,0
2022-12-25T06:42:23.389Z,0
2022-12-25T06:43:23.537Z,0
2022-12-25T06:44:23.658Z,0
2022-12-25T06:45:24.247Z,0
2022-12-25T06:46:24.023Z,0
2022-12-25T06:47:24.110Z,0
2022-12-25T06:48:24.254Z,0
2022-12-25T06:49:24.399Z,0
2022-12-25T06:50:24.507Z,0
2022-12-25T06:51:24.606Z,0
2022-12-25T06:52:24.699Z,0
2022-12-25T06:53:24.812Z,0
2022-12-25T06:54:24.906Z,0
2022-12-25T06:55:25.009Z,0
2022-12-25T06:56:25.169Z,0
2022-12-25T06:57:25.316Z,0
2022-12-25T06:58:25.427Z,0
2022-12-25T06:59:25.575Z,0
2022-12-25T07:00:26.085Z,0
2022-12-25T07:01:25.992Z,0
2022-12-25T07:02:26.140Z,0
2022-12-25T07:03:26.175Z,0
2022-12-25T07:04:26.268Z,0
2022-12-25T07:05:26.366Z,0
2022-12-25T07:06:26.467Z,0
2022-12-25T07:07:26.579Z,0
2022-12-25T07:08:26.739Z,0
2022-12-25T07:09:26.878Z,0
2022-12-25T07:10:26.997Z,0
2022-12-25T07:11:27.099Z,0
2022-12-25T07:12:27.190Z,0
2022-12-25T07:13:27.348Z,0
2022-12-25T07:14:27.479Z,0
2022-12-25T07:15:28.017Z,0
2022-12-25T07:16:27.830Z,0
2022-12-25T07:17:27.849Z,0
2022-12-25T07:18:27.988Z,0
2022-12-25T07:19:28.141Z,0
2022-12-25T07:20:28.264Z,0
2022-12-25T07:21:28.361Z,0
2022-12-25T07:22:28.494Z,0
2022-12-25T07:23:28.611Z,0
2022-12-25T07:24:28.756Z,0
2022-12-25T07:25:33.649Z,0
2022-12-25T07:26:29.069Z,0
2022-12-25T07:27:29.247Z,0
2022-12-25T07:28:29.318Z,0
2022-12-25T07:29:29.785Z,0
2022-12-25T07:30:29.683Z,0
2022-12-25T07:31:29.794Z,0
2022-12-25T07:32:29.921Z,0
2022-12-25T07:33:30.061Z,0
2022-12-25T07:34:30.170Z,0
2022-12-25T07:35:30.313Z,0
2022-12-25T07:36:30.409Z,0
2022-12-25T07:37:30.519Z,0
2022-12-25T07:38:30.675Z,0
2022-12-25T07:39:30.830Z,0
2022-12-25T07:40:30.992Z,0
2022-12-25T07:41:31.147Z,0
2022-12-25T07:42:31.290Z,0
2022-12-25T07:43:31.445Z,0
2022-12-25T07:44:32.047Z,0
2022-12-25T07:45:31.829Z,0
2022-12-25T07:46:31.903Z,0
2022-12-25T07:47:32.047Z,0
2022-12-25T07:48:32.136Z,0
2022-12-25T07:49:32.277Z,0
2022-12-25T07:50:32.806Z,0
2022-12-25T07:51:32.935Z,0
2022-12-25T07:52:36.650Z,0
2022-12-25T07:53:32.907Z,0
2022-12-25T07:54:33.445Z,0
2022-12-25T07:55:33.586Z,0
2022-12-25T07:56:33.723Z,0
2022-12-25T07:57:33.867Z,0
2022-12-25T07:58:34.000Z,0
2022-12-25T07:59:34.421Z,0
2022-12-25T08:00:34.023Z,0
2022-12-25T08:01:35.101Z,0
2022-12-25T08:02:35.249Z,0
2022-12-25T08:03:34.958Z,0
2022-12-25T08:04:34.946Z,0
2022-12-25T08:05:35.110Z,0
2022-12-25T08:06:35.232Z,0
2022-12-25T08:07:35.383Z,0
2022-12-25T08:08:35.515Z,0
2022-12-25T08:09:35.702Z,0
2022-12-25T08:10:35.841Z,0
2022-12-25T08:11:35.994Z,0
2022-12-25T08:12:36.146Z,0
2022-12-25T08:13:36.239Z,0
2022-12-25T08:14:36.556Z,0
2022-12-25T08:15:36.180Z,0
2022-12-25T08:16:36.437Z,0
2022-12-25T08:17:36.883Z,0
2022-12-25T08:18:37.010Z,0
2022-12-25T08:19:37.151Z,0
2022-12-25T08:20:37.306Z,0
2022-12-25T08:21:37.505Z,0
2022-12-25T08:22:37.609Z,0
2022-12-25T08:23:37.740Z,0
2022-12-25T08:24:37.907Z,0
2022-12-25T08:25:38.022Z,0
2022-12-25T08:26:38.251Z,0
2022-12-25T08:27:38.369Z,0
2022-12-25T08:28:38.872Z,0
2022-12-25T08:29:38.874Z,0
2022-12-25T08:30:38.443Z,0
2022-12-25T08:31:44.198Z,0
2022-12-25T08:32:39.076Z,0
2022-12-25T08:33:39.190Z,0
2022-12-25T08:34:39.291Z,0
2022-12-25T08:35:39.428Z,0
2022-12-25T08:36:39.534Z,0
2022-12-25T08:37:39.810Z,0
2022-12-25T08:38:39.910Z,0.8
2022-12-25T08:39:39.982Z,0.8
2022-12-25T08:40:40.093Z,1.04
2022-12-25T08:41:40.247Z,1.6
2022-12-25T08:42:40.433Z,2
2022-12-25T08:43:40.579Z,1.04
2022-12-25T08:44:40.942Z,0.8
2022-12-25T08:45:40.594Z,0
2022-12-25T08:46:40.709Z,0.64
2022-12-25T08:47:41.193Z,1.44
2022-12-25T08:48:41.300Z,1.04
2022-12-25T08:49:41.497Z,1.2
2022-12-25T08:50:41.643Z,1.84
2022-12-25T08:51:41.743Z,0.8
2022-12-25T08:52:41.906Z,2
2022-12-25T08:53:42.206Z,1.2
2022-12-25T08:54:42.248Z,1.44
2022-12-25T08:55:42.407Z,0.8
2022-12-25T08:56:42.190Z,1.44
2022-12-25T08:57:42.605Z,1.44
2022-12-25T08:58:42.753Z,0
2022-12-25T08:59:43.059Z,1.04
2022-12-25T09:00:42.696Z,1.6
2022-12-25T09:01:42.889Z,2.24
2022-12-25T09:02:42.976Z,0
2022-12-25T09:03:43.210Z,0
2022-12-25T09:04:43.554Z,2.24
2022-12-25T09:05:43.676Z,1.44
2022-12-25T09:06:43.840Z,1.2
2022-12-25T09:07:43.966Z,1.04
2022-12-25T09:08:47.960Z,0.64
2022-12-25T09:09:44.172Z,1.44
2022-12-25T09:10:44.302Z,1.04
2022-12-25T09:11:44.491Z,1.04
2022-12-25T09:12:44.679Z,1.44
2022-12-25T09:13:44.788Z,1.04
2022-12-25T09:14:45.132Z,0
2022-12-25T09:15:44.730Z,3.04
2022-12-25T09:16:45.182Z,0.8
2022-12-25T09:17:45.287Z,1.04
2022-12-25T09:18:45.438Z,0
2022-12-25T09:19:45.644Z,1.2
2022-12-25T09:20:45.785Z,0.8
2022-12-25T09:21:45.915Z,0.8
2022-12-25T09:22:46.003Z,1.2
2022-12-25T09:23:46.098Z,0.8
2022-12-25T09:24:46.292Z,1.2
2022-12-25T09:25:46.400Z,1.44
2022-12-25T09:26:46.551Z,1.2
2022-12-25T09:27:47.154Z,0
2022-12-25T09:28:51.725Z,1.84
2022-12-25T09:29:47.255Z,0
2022-12-25T09:30:46.859Z,1.2
2022-12-25T09:31:46.910Z,0
2022-12-25T09:32:47.004Z,1.04
2022-12-25T09:33:47.164Z,1.44
2022-12-25T09:34:47.316Z,1.2
2022-12-25T09:35:47.794Z,1.04
2022-12-25T09:36:47.874Z,1.44
2022-12-25T09:37:48.090Z,1.2
2022-12-25T09:38:48.275Z,0
2022-12-25T09:39:48.367Z,1.2
2022-12-25T09:40:48.523Z,1.6
2022-12-25T09:41:48.720Z,1.04
2022-12-25T09:42:48.871Z,1.2
2022-12-25T09:43:48.977Z,1.2
2022-12-25T09:44:49.374Z,1.04
2022-12-25T09:45:48.958Z,0
2022-12-25T09:46:49.107Z,1.04
2022-12-25T09:47:49.131Z,1.44
2022-12-25T09:48:49.281Z,1.04
2022-12-25T09:49:49.441Z,1.04
2022-12-25T09:50:49.586Z,0
2022-12-25T09:51:50.071Z,1.04
2022-12-25T09:52:50.238Z,1.04
2022-12-25T09:53:50.388Z,0
2022-12-25T09:54:50.590Z,1.6
2022-12-25T09:55:50.718Z,0.8
2022-12-25T09:56:50.855Z,1.04
2022-12-25T09:57:51.046Z,2.64
2022-12-25T09:58:51.205Z,1.6
2022-12-25T09:59:51.601Z,1.2
2022-12-25T10:00:51.083Z,1.04
2022-12-25T10:01:51.285Z,0.64
2022-12-25T10:02:51.558Z,0.64
2022-12-25T10:03:51.969Z,0
2022-12-25T10:04:52.056Z,3.2
2022-12-25T10:05:52.155Z,2.24
2022-12-25T10:06:52.275Z,1.44
2022-12-25T10:07:52.408Z,1.44
2022-12-25T10:08:52.170Z,0.8
2022-12-25T10:09:52.666Z,2
2022-12-25T10:10:52.772Z,2
2022-12-25T10:11:52.953Z,1.2
2022-12-25T10:12:53.065Z,1.6
2022-12-25T10:13:53.176Z,2
2022-12-25T10:14:53.582Z,1.84
2022-12-25T10:15:53.158Z,2
2022-12-25T10:16:53.682Z,1.44
2022-12-25T10:17:53.771Z,1.04
2022-12-25T10:18:53.864Z,1.6
2022-12-25T10:19:54.034Z,0
2022-12-25T10:20:54.179Z,1.6
2022-12-25T10:21:54.362Z,0.64
2022-12-25T10:22:54.467Z,1.04
2022-12-25T10:23:54.595Z,0.8
2022-12-25T10:24:54.738Z,0
2022-12-25T10:25:54.910Z,1.04
2022-12-25T10:26:55.237Z,0.64
2022-12-25T10:27:55.270Z,1.44
2022-12-25T10:28:55.288Z,0
2022-12-25T10:29:55.703Z,1.84
2022-12-25T10:30:55.264Z,0
2022-12-25T10:31:55.323Z,1.04
2022-12-25T10:32:55.557Z,0
2022-12-25T10:33:56.043Z,1.04
2022-12-25T10:34:56.148Z,1.44
2022-12-25T10:35:56.283Z,0
2022-12-25T10:36:56.496Z,0
2022-12-25T10:37:56.618Z,1.04
2022-12-25T10:38:56.809Z,1.2
2022-12-25T10:39:56.908Z,0
2022-12-25T10:40:57.043Z,0
2022-12-25T10:41:57.457Z,0
2022-12-25T10:42:57.324Z,0
2022-12-25T10:43:57.479Z,0
2022-12-25T10:44:57.927Z,0
2022-12-25T10:45:57.584Z,0
2022-12-25T10:46:58.103Z,1.04
2022-12-25T10:48:03.499Z,0
2022-12-25T10:48:58.333Z,0.8
2022-12-25T10:49:58.438Z,0.64
2022-12-25T10:50:58.528Z,0
2022-12-25T10:51:58.731Z,1.04
2022-12-25T10:52:58.917Z,1.2
2022-12-25T10:53:59.079Z,1.04
2022-12-25T10:54:59.161Z,2
2022-12-25T10:55:59.273Z,1.04
2022-12-25T10:56:59.422Z,1.6
2022-12-25T10:57:59.568Z,1.2
2022-12-25T10:58:59.717Z,1.44
2022-12-25T11:00:00.201Z,4.16
2022-12-25T11:00:59.615Z,0
2022-12-25T11:01:59.751Z,1.44
2022-12-25T11:03:00.265Z,1.04
2022-12-25T11:04:00.072Z,0.8
2022-12-25T11:05:00.160Z,1.04
2022-12-25T11:06:00.319Z,1.2
2022-12-25T11:07:00.516Z,2
2022-12-25T11:08:00.632Z,1.2
2022-12-25T11:09:00.769Z,1.2
2022-12-25T11:10:05.034Z,1.04
2022-12-25T11:11:01.076Z,1.04
2022-12-25T11:12:01.606Z,1.04
2022-12-25T11:13:01.769Z,1.2
2022-12-25T11:14:02.242Z,1.84
2022-12-25T11:15:02.259Z,2.64
2022-12-25T11:16:01.892Z,1.6
2022-12-25T11:17:01.938Z,1.44
2022-12-25T11:18:02.112Z,1.04
2022-12-25T11:19:02.663Z,1.2
2022-12-25T11:20:02.702Z,1.6
2022-12-25T11:21:02.796Z,1.44
2022-12-25T11:22:02.943Z,0
2022-12-25T11:23:03.101Z,1.84
2022-12-25T11:24:03.272Z,0
2022-12-25T11:25:03.355Z,0
2022-12-25T11:26:03.531Z,0
2022-12-25T11:27:03.721Z,0
2022-12-25T11:28:03.872Z,0.8
2022-12-25T11:29:03.993Z,1.04
2022-12-25T11:30:04.315Z,0
2022-12-25T11:31:03.919Z,0.8
2022-12-25T11:32:04.346Z,1.84
2022-12-25T11:33:04.500Z,0.8
2022-12-25T11:34:04.594Z,0
2022-12-25T11:35:04.797Z,0
2022-12-25T11:36:04.942Z,0
2022-12-25T11:37:05.125Z,1.04
2022-12-25T11:38:05.285Z,1.2
2022-12-25T11:39:05.445Z,2.24
2022-12-25T11:40:05.583Z,1.44
2022-12-25T11:41:05.642Z,2.8
2022-12-25T11:42:05.791Z,1.04
2022-12-25T11:43:08.127Z,0
2022-12-25T11:44:06.100Z,0
2022-12-25T11:45:06.401Z,1.6
2022-12-25T11:46:06.089Z,1.04
2022-12-25T11:47:06.916Z,0
2022-12-25T11:48:06.386Z,0
2022-12-25T11:49:06.853Z,0
2022-12-25T11:50:07.012Z,0
2022-12-25T11:51:07.110Z,1.44
2022-12-25T11:52:07.263Z,0
2022-12-25T11:53:07.464Z,0.8
2022-12-25T11:54:07.666Z,1.04
2022-12-25T11:55:07.759Z,0.64
2022-12-25T11:56:07.898Z,0.8
2022-12-25T11:57:08.014Z,1.04
2022-12-25T11:58:07.849Z,0
2022-12-25T11:59:10.535Z,1.04
2022-12-25T12:00:08.669Z,0.8
2022-12-25T12:01:08.213Z,1.44
2022-12-25T12:02:08.488Z,1.84
2022-12-25T12:03:08.567Z,0
2022-12-25T12:04:08.968Z,1.2
2022-12-25T12:05:09.109Z,0
2022-12-25T12:06:09.260Z,1.6
2022-12-25T12:07:09.429Z,2
2022-12-25T12:08:09.541Z,0
2022-12-25T12:09:09.763Z,1.2
2022-12-25T12:10:09.939Z,1.04
2022-12-25T12:11:10.083Z,1.04
2022-12-25T12:12:10.240Z,0.8
2022-12-25T12:13:10.345Z,1.44
2022-12-25T12:14:10.463Z,0.8
2022-12-25T12:15:10.902Z,0
2022-12-25T12:16:10.456Z,0.8
2022-12-25T12:17:10.625Z,0
2022-12-25T12:18:11.095Z,0.8
2022-12-25T12:19:11.204Z,1.2
2022-12-25T12:20:11.587Z,1.44
2022-12-25T12:21:11.471Z,1.44
2022-12-25T12:22:11.649Z,1.6
2022-12-25T12:23:11.802Z,1.44
2022-12-25T12:24:11.960Z,1.84
2022-12-25T12:25:12.170Z,1.6
2022-12-25T12:26:12.415Z,1.6
2022-12-25T12:27:12.511Z,2.24
2022-12-25T12:28:12.657Z,4
2022-12-25T12:29:12.763Z,1.04
2022-12-25T12:30:13.189Z,1.44
2022-12-25T12:31:12.642Z,1.44
2022-12-25T12:32:13.360Z,2.24
2022-12-25T12:33:13.365Z,2.24
2022-12-25T12:34:13.472Z,1.6
2022-12-25T12:35:13.569Z,1.6
2022-12-25T12:36:13.672Z,2.24
2022-12-25T12:37:13.828Z,1.2
2022-12-25T12:38:13.973Z,1.6
2022-12-25T12:39:14.078Z,1.04
2022-12-25T12:40:14.286Z,1.04
2022-12-25T12:41:14.437Z,1.04
2022-12-25T12:42:14.650Z,1.6
2022-12-25T12:43:14.816Z,1.04
2022-12-25T12:44:14.940Z,1.84
2022-12-25T12:45:15.249Z,0
2022-12-25T12:46:14.863Z,0
2022-12-25T12:47:15.241Z,1.2
2022-12-25T12:48:15.388Z,1.6
2022-12-25T12:49:15.549Z,1.2
2022-12-25T12:50:15.745Z,0
2022-12-25T12:51:15.794Z,0
2022-12-25T12:52:15.950Z,1.04
2022-12-25T12:53:16.103Z,0.8
2022-12-25T12:54:16.209Z,0
2022-12-25T12:55:16.401Z,0
2022-12-25T12:56:16.539Z,2.4
2022-12-25T12:57:16.720Z,0.8
2022-12-25T12:58:16.864Z,1.04
2022-12-25T12:59:17.040Z,0
2022-12-25T13:00:17.423Z,0
2022-12-25T13:01:17.113Z,0.8
2022-12-25T13:02:17.597Z,1.44
2022-12-25T13:03:17.604Z,0
2022-12-25T13:04:17.705Z,0
2022-12-25T13:05:17.809Z,0.64
2022-12-25T13:06:17.966Z,1.6
2022-12-25T13:07:18.165Z,0.8
2022-12-25T13:08:18.318Z,2.64
2022-12-25T13:09:18.377Z,1.04
2022-12-25T13:10:18.558Z,2.24
2022-12-25T13:11:18.680Z,2.8
2022-12-25T13:12:18.871Z,0.8
2022-12-25T13:13:18.960Z,1.04
2022-12-25T13:14:19.142Z,1.2
2022-12-25T13:15:19.561Z,1.44
2022-12-25T13:16:19.141Z,2.8
2022-12-25T13:17:19.679Z,1.2
2022-12-25T13:18:19.783Z,1.44
2022-12-25T13:19:19.931Z,1.2
2022-12-25T13:20:19.996Z,1.6
2022-12-25T13:21:20.189Z,3.2
2022-12-25T13:22:19.948Z,1.6
2022-12-25T13:23:20.033Z,2.4
2022-12-25T13:24:20.187Z,1.2
2022-12-25T13:25:20.350Z,1.2
2022-12-25T13:26:20.496Z,1.04
2022-12-25T13:27:20.995Z,1.04
2022-12-25T13:28:21.101Z,2.64
2022-12-25T13:29:21.255Z,0.8
2022-12-25T13:30:21.578Z,1.2
2022-12-25T13:31:21.272Z,0.8
2022-12-25T13:32:21.656Z,1.2
2022-12-25T13:33:21.903Z,0.8
2022-12-25T13:34:22.029Z,1.2
2022-12-25T13:35:22.156Z,1.04
2022-12-25T13:36:22.289Z,0
2022-12-25T13:37:22.421Z,0
2022-12-25T13:38:22.464Z,0
2022-12-25T13:39:22.725Z,1.04
2022-12-25T13:40:22.770Z,1.04
2022-12-25T13:41:22.963Z,0
2022-12-25T13:42:23.115Z,0
2022-12-25T13:43:23.218Z,1.04
2022-12-25T13:44:23.373Z,0
2022-12-25T13:45:23.983Z,0
2022-12-25T13:46:23.370Z,0
2022-12-25T13:47:23.737Z,0
2022-12-25T13:48:23.877Z,0
2022-12-25T13:49:24.034Z,0
2022-12-25T13:50:24.183Z,0
2022-12-25T13:51:24.385Z,1.2
2022-12-25T13:52:24.555Z,0
2022-12-25T13:53:24.682Z,0.64
2022-12-25T13:54:24.797Z,0
2022-12-25T13:55:24.906Z,0
2022-12-25T13:56:25.097Z,0
2022-12-25T13:57:25.488Z,0.8
2022-12-25T13:58:25.390Z,0
2022-12-25T13:59:25.548Z,1.04
2022-12-25T14:00:25.859Z,0
2022-12-25T14:01:25.487Z,0.8
2022-12-25T14:02:25.709Z,1.04
2022-12-25T14:03:25.744Z,2.4
2022-12-25T14:04:25.872Z,2.64
2022-12-25T14:05:26.331Z,0
2022-12-25T14:06:26.450Z,1.04
2022-12-25T14:07:26.610Z,1.2
2022-12-25T14:08:26.819Z,0
2022-12-25T14:09:27.570Z,2.64
2022-12-25T14:10:27.125Z,0.8
2022-12-25T14:11:27.260Z,1.04
2022-12-25T14:12:27.348Z,2.24
2022-12-25T14:13:27.534Z,1.04
2022-12-25T14:14:27.705Z,2.64
2022-12-25T14:15:27.846Z,1.84
2022-12-25T14:16:27.672Z,1.44
2022-12-25T14:17:27.793Z,1.2
2022-12-25T14:18:28.374Z,0
2022-12-25T14:19:28.352Z,1.04
2022-12-25T14:20:28.518Z,1.2
2022-12-25T14:21:28.642Z,0.64
2022-12-25T14:22:28.837Z,0
2022-12-25T14:23:29.029Z,0
2022-12-25T14:24:29.228Z,0
2022-12-25T14:25:29.378Z,0.64